Time;durP1;ratioP1;P1;durP2;ratioP2;P2;SDS_P1;SDS_P2;PMS_P1;PMS_P2;Temp;Humidity;BMP_temperature;BMP_pressure;BME280_temperature;BME280_humidity;BME280_pressure;Samples;Min_cycle;Max_cycle;Signal;HPM_P1;HPM_P2
2023/03/25 00:02:20;;;;;;;15.63;3.37;;;;;;;16.94;45.86;100171.28;5046598;28;20143;-65
2023/03/25 00:04:50;;;;;;;10.87;2.30;;;;;;;15.54;48.53;100166.81;5047694;28;20032;-65
2023/03/25 00:07:17;;;;;;;20.17;2.97;;;;;;;17.48;44.78;100166.97;5047489;28;20025;-65
2023/03/25 00:09:43;;;;;;;13.13;1.83;;;;;;;17.39;44.83;100166.50;5048081;28;20017;-66
2023/03/25 00:12:08;;;;;;;17.50;2.00;;;;;;;17.27;44.71;100159.19;5048653;28;20033;-66
2023/03/25 00:14:33;;;;;;;14.87;1.83;;;;;;;16.76;45.58;100165.03;5051213;28;20029;-66
2023/03/25 00:17:00;;;;;;;13.90;2.60;;;;;;;16.66;46.21;100155.81;5051209;28;20518;-66
2023/03/25 00:19:26;;;;;;;16.03;1.90;;;;;;;17.26;44.66;100152.19;5049802;28;20072;-66
2023/03/25 00:21:53;;;;;;;15.80;3.03;;;;;;;17.58;44.38;100155.84;5049512;28;20033;-66
2023/03/25 00:24:18;;;;;;;16.00;1.97;;;;;;;17.61;43.65;100157.50;5051015;28;20033;-65
2023/03/25 00:26:45;;;;;;;20.17;3.07;;;;;;;17.61;44.27;100157.50;5050907;28;20047;-66
2023/03/25 00:29:12;;;;;;;17.43;2.37;;;;;;;17.04;44.70;100158.47;5050926;28;20374;-66
2023/03/25 00:31:38;;;;;;;13.97;1.90;;;;;;;16.46;46.36;100156.75;5051334;28;20032;-66
2023/03/25 00:34:04;;;;;;;12.77;2.30;;;;;;;18.14;43.75;100151.28;5048626;28;20028;-66
2023/03/25 00:36:29;;;;;;;18.00;2.40;;;;;;;18.20;43.23;100141.31;5050045;28;20024;-66
2023/03/25 00:38:54;;;;;;;9.70;2.50;;;;;;;16.32;46.68;100149.47;5049248;28;20021;-66
2023/03/25 00:41:26;;;;;;;19.43;2.57;;;;;;;16.85;45.44;100152.34;5050218;28;20040;-66
2023/03/25 00:43:54;;;;;;;32.50;2.83;;;;;;;16.32;46.25;100154.75;5050962;28;20443;-66
2023/03/25 00:46:21;;;;;;;15.33;2.20;;;;;;;17.42;44.73;100150.50;5050504;28;20033;-65
2023/03/25 00:48:47;;;;;;;14.83;2.03;;;;;;;16.84;45.17;100156.75;5050412;28;20082;-66
2023/03/25 00:51:20;;;;;;;18.93;3.37;;;;;;;16.69;45.49;100147.78;5050694;28;20029;-66
2023/03/25 00:53:46;;;;;;;;;;;;;;;16.69;45.58;100155.69;5049848;28;20028;-65
2023/03/25 00:56:12;;;;;;;17.27;3.20;;;;;;;16.32;46.94;100159.13;5048947;28;19909;-65
2023/03/25 00:58:37;;;;;;;15.17;2.00;;;;;;;16.52;46.57;100151.19;5049405;28;20028;-65
2023/03/25 01:01:15;;;;;;;11.90;2.07;;;;;;;17.15;45.62;100149.22;5048793;28;20036;-65
2023/03/25 01:03:44;;;;;;;18.00;3.00;;;;;;;16.65;45.77;100140.94;5049284;28;20056;-66
2023/03/25 01:06:12;;;;;;;16.03;2.30;;;;;;;17.19;45.54;100145.50;5048482;28;20116;-66
2023/03/25 01:08:39;;;;;;;18.47;2.43;;;;;;;17.26;44.40;100152.19;5050792;28;20056;-66
2023/03/25 01:11:05;;;;;;;15.80;2.70;;;;;;;17.26;45.40;100149.53;5047961;28;20040;-65
2023/03/25 01:13:31;;;;;;;17.83;2.50;;;;;;;16.87;45.50;100139.91;5049086;28;20515;-66
2023/03/25 01:15:57;;;;;;;11.77;1.73;;;;;;;16.88;47.98;100157.47;5048405;28;20028;-65
2023/03/25 01:18:22;;;;;;;18.53;2.43;;;;;;;16.53;48.35;100152.06;5048788;28;20282;-65
2023/03/25 01:20:47;;;;;;;18.50;3.10;;;;;;;17.56;47.46;100159.53;5048619;28;20032;-65
2023/03/25 01:23:13;;;;;;;21.37;2.87;;;;;;;17.38;48.29;100145.41;5047661;28;20029;-66
2023/03/25 01:25:39;;;;;;;23.43;3.73;;;;;;;17.20;48.00;100153.34;5050563;28;20035;-66
2023/03/25 01:28:05;;;;;;;15.77;2.63;;;;;;;17.28;47.84;100148.53;5047878;28;20025;-66
2023/03/25 01:30:30;;;;;;;24.63;2.70;;;;;;;16.40;49.04;100152.59;5048475;28;20373;-66
2023/03/25 01:32:56;;;;;;;20.43;2.33;;;;;;;15.56;52.41;100160.53;5048488;28;20106;-65
2023/03/25 01:35:21;;;;;;;24.67;3.13;;;;;;;15.62;51.94;100154.19;5048126;28;20024;-66
2023/03/25 01:37:47;;;;;;;19.27;2.23;;;;;;;16.37;51.02;100152.72;5049332;28;20039;-66
2023/03/25 01:40:19;;;;;;;27.00;3.83;;;;;;;16.94;49.80;100141.38;5048346;28;20017;-66
2023/03/25 01:42:45;;;;;;;19.25;2.67;;;;;;;16.28;50.71;100142.63;5048671;28;20513;-65
2023/03/25 01:45:13;;;;;;;14.97;3.20;;;;;;;16.78;50.53;100147.34;5047593;28;20024;-65
2023/03/25 01:47:40;;;;;;;21.23;2.60;;;;;;;15.66;53.43;100142.59;5048515;28;20413;-65
2023/03/25 01:50:13;;;;;;;17.27;2.40;;;;;;;15.58;53.82;100142.06;5047587;28;20147;-65
2023/03/25 01:52:40;;;;;;;21.10;2.93;;;;;;;16.81;50.26;100145.50;5048271;28;20177;-66
2023/03/25 01:55:06;;;;;;;17.67;3.27;;;;;;;16.27;52.08;100146.16;5047423;28;20809;-66
2023/03/25 01:57:32;;;;;;;14.13;3.07;;;;;;;15.62;53.89;100135.75;5048518;28;20039;-66
2023/03/25 01:59:58;;;;;;;14.60;2.47;;;;;;;16.37;52.58;100147.44;5047565;28;20116;-66
2023/03/25 02:02:35;;;;;;;19.37;2.53;;;;;;;16.60;51.67;100142.94;5049332;28;20040;-66
2023/03/25 02:05:09;;;;;;;21.33;3.40;;;;;;;16.20;51.52;100134.19;5048919;28;20469;-66
2023/03/25 02:07:41;;;;;;;17.77;2.50;;;;;;;16.22;51.83;100137.59;5049835;28;20102;-66
2023/03/25 02:10:09;;;;;;;12.40;3.27;;;;;;;16.28;50.86;100126.78;5047189;28;20500;-66
2023/03/25 02:12:34;;;;;;;18.43;3.10;;;;;;;16.75;49.68;100131.66;5047713;28;20283;-66
2023/03/25 02:15:03;;;;;;;21.97;3.37;;;;;;;16.75;50.49;100126.38;5047929;28;20052;-66
2023/03/25 02:17:47;;;;;;;19.97;2.87;;;;;;;16.08;51.79;100131.16;5048003;28;20106;-66
2023/03/25 02:20:24;;;;;;;15.87;2.10;;;;;;;16.05;51.85;100131.28;5047084;28;20413;-66
2023/03/25 02:23:27;;;;;;;12.80;2.47;;;;;;;16.85;50.02;100118.88;5048957;28;20036;-66
2023/03/25 02:26:35;;;;;;;19.37;2.43;;;;;;;16.59;51.42;100130.66;5049121;28;20032;-66
2023/03/25 02:29:24;;;;;;;19.43;2.30;;;;;;;16.64;51.07;100112.84;5049062;28;20033;-66
2023/03/25 02:32:00;;;;;;;19.80;2.80;;;;;;;16.32;51.76;100117.81;5048863;28;20024;-66
2023/03/25 02:34:59;;;;;;;19.47;2.37;;;;;;;16.65;50.53;100118.94;5046190;28;20079;-66
2023/03/25 02:37:57;;;;;;;19.00;2.60;;;;;;;16.87;49.65;100110.88;5048382;28;20087;-66
2023/03/25 02:40:39;;;;;;;21.37;2.47;;;;;;;17.78;48.17;100106.44;5046792;28;20455;-66
2023/03/25 02:43:41;;;;;;;21.10;2.87;;;;;;;16.67;50.29;100117.97;5047049;28;20115;-68
2023/03/25 02:46:11;;;;;;;24.27;2.80;;;;;;;17.59;49.14;100101.25;5046666;28;20028;-65
2023/03/25 02:49:00;;;;;;;12.37;2.13;;;;;;;15.68;52.82;100114.41;5047116;28;20064;-65
2023/03/25 02:51:37;;;;;;;17.73;3.40;;;;;;;16.47;51.86;100115.38;5040695;28;20392;-65
2023/03/25 02:54:10;;;;;;;16.03;3.13;;;;;;;17.16;50.10;100103.38;5046759;28;20484;-65
2023/03/25 02:56:38;;;;;;;24.90;3.20;;;;;;;17.21;50.07;100098.72;5048366;28;20031;-65
2023/03/25 02:59:04;;;;;;;21.63;2.60;;;;;;;17.60;48.24;100095.03;5046600;28;20059;-65
2023/03/25 03:01:33;;;;;;;22.20;2.80;;;;;;;17.25;49.87;100095.84;5048257;28;20025;-65
2023/03/25 03:03:59;;;;;;;22.40;3.93;;;;;;;17.46;48.56;100093.94;5048509;28;20039;-65
2023/03/25 03:06:27;;;;;;;11.77;2.30;;;;;;;16.81;51.05;100092.72;5046911;28;20116;-65
2023/03/25 03:09:07;;;;;;;19.53;2.47;;;;;;;17.09;49.80;100093.13;5046548;28;20676;-65
2023/03/25 03:11:45;;;;;;;15.03;2.00;;;;;;;17.60;48.96;100089.75;5047257;28;20033;-65
2023/03/25 03:14:30;;;;;;;14.50;2.50;;;;;;;16.66;50.73;100078.47;5046746;28;20563;-65
2023/03/25 03:17:33;;;;;;;17.03;2.80;;;;;;;17.57;49.89;100072.25;5046436;28;20025;-65
2023/03/25 03:20:12;;;;;;;24.27;3.53;;;;;;;17.31;50.75;100076.22;5027666;28;20040;-65
2023/03/25 03:22:38;;;;;;;18.30;3.93;;;;;;;17.01;52.01;100068.00;5046661;28;20027;-65
2023/03/25 03:25:06;;;;;;;23.70;2.57;;;;;;;16.06;53.84;100080.28;5046559;28;20032;-65
2023/03/25 03:27:56;;;;;;;17.77;2.37;;;;;;;16.15;55.14;100072.91;5048585;28;20035;-65
2023/03/25 03:30:48;;;;;;;17.10;2.93;;;;;;;17.33;52.14;100066.41;5046468;28;20535;-65
2023/03/25 03:33:24;;;;;;;24.13;4.53;;;;;;;17.13;53.66;100063.00;5047878;28;20056;-64
2023/03/25 03:36:04;;;;;;;20.57;2.67;;;;;;;17.46;52.76;100066.66;5046906;28;20450;-65
2023/03/25 03:38:38;;;;;;;25.73;2.73;;;;;;;17.71;51.87;100073.31;5046822;28;20031;-64
2023/03/25 03:41:09;;;;;;;17.57;3.13;;;;;;;17.87;50.67;100070.72;5046025;28;20051;-65
2023/03/25 03:43:56;;;;;;;23.23;2.60;;;;;;;16.70;54.45;100075.59;5046697;28;20032;-64
2023/03/25 03:46:31;;;;;;;24.20;2.93;;;;;;;16.27;55.39;100088.16;5048378;28;20548;-65
2023/03/25 03:48:58;;;;;;;22.30;3.53;;;;;;;16.87;55.22;100082.72;5051556;28;20504;-66
2023/03/25 03:51:28;;;;;;;23.07;3.00;;;;;;;16.68;55.58;100072.19;5051259;28;20381;-66
2023/03/25 03:54:25;;;;;;;20.90;3.47;;;;;;;16.18;58.06;100101.75;5050603;28;20044;-65
2023/03/25 03:57:06;;;;;;;27.83;3.73;;;;;;;16.48;55.06;100090.72;5038506;28;20120;-65
2023/03/25 03:59:34;;;;;;;21.37;3.37;;;;;;;16.65;56.06;100098.72;5050334;28;20131;-65
2023/03/25 04:02:05;;;;;;;27.90;3.33;;;;;;;15.31;60.01;100094.88;5051482;28;20051;-65
2023/03/25 04:04:33;;;;;;;36.73;4.83;;;;;;;15.87;58.79;100095.22;5050708;28;20110;-65
2023/03/25 04:07:09;;;;;;;28.53;6.13;;;;;;;15.71;58.16;100105.50;5051823;28;20028;-65
2023/03/25 04:09:56;;;;;;;34.70;5.10;;;;;;;15.20;61.47;100110.28;5051683;28;20025;-65
2023/03/25 04:12:33;;;;;;;24.73;3.90;;;;;;;16.20;57.67;100105.19;5049426;28;20488;-65
2023/03/25 04:15:04;;;;;;;27.43;3.43;;;;;;;16.84;55.00;100082.00;5049960;28;20553;-65
2023/03/25 04:17:31;;;;;;;26.97;3.57;;;;;;;16.28;55.82;100089.88;5051988;28;20046;-65
2023/03/25 04:19:58;;;;;;;24.50;3.73;;;;;;;16.14;55.96;100087.00;5049755;28;20467;-65
2023/03/25 04:22:23;;;;;;;33.00;4.03;;;;;;;15.75;57.30;100102.69;5050954;28;20029;-65
2023/03/25 04:24:50;;;;;;;24.13;3.53;;;;;;;15.37;58.55;100091.13;5050103;28;20035;-65
2023/03/25 04:27:17;;;;;;;22.90;3.20;;;;;;;15.16;58.33;100092.88;5049548;28;20074;-64
2023/03/25 04:29:43;;;;;;;26.93;2.97;;;;;;;15.51;57.94;100088.78;5049904;28;20021;-65
2023/03/25 04:32:11;;;;;;;26.93;3.07;;;;;;;14.88;58.83;100099.28;5049214;28;20044;-65
2023/03/25 04:34:37;;;;;;;22.23;3.13;;;;;;;15.73;57.33;100094.00;5050937;28;20039;-64
2023/03/25 04:37:03;;;;;;;27.67;3.30;;;;;;;15.85;55.88;100094.41;5049302;28;20123;-64
2023/03/25 04:39:31;;;;;;;31.73;4.10;;;;;;;16.33;55.08;100097.56;5049948;28;20060;-65
2023/03/25 04:42:00;;;;;;;21.80;3.53;;;;;;;16.29;54.06;100086.28;5049081;28;20033;-64
2023/03/25 04:44:27;;;;;;;29.13;3.30;;;;;;;15.71;56.67;100093.19;5050591;28;20393;-65
2023/03/25 04:46:54;;;;;;;39.97;4.73;;;;;;;16.73;54.16;100085.16;5049171;28;20052;-65
2023/03/25 04:49:21;;;;;;;39.43;4.10;;;;;;;15.76;55.42;100093.00;5049108;28;20052;-65
2023/03/25 04:51:52;;;;;;;25.17;3.63;;;;;;;16.12;55.88;100100.25;5050533;28;20188;-65
2023/03/25 04:54:20;;;;;;;31.20;3.10;;;;;;;14.92;57.65;100106.13;5050279;28;20037;-65
2023/03/25 04:56:48;;;;;;;29.93;3.80;;;;;;;15.19;55.92;100103.28;5049391;28;20059;-65
2023/03/25 04:59:14;;;;;;;33.53;4.33;;;;;;;15.39;55.52;100105.94;5049293;28;20025;-65
2023/03/25 05:01:41;;;;;;;26.17;3.93;;;;;;;16.25;54.12;100103.19;5050390;28;20059;-65
2023/03/25 05:04:11;;;;;;;25.47;4.63;;;;;;;15.78;53.94;100106.97;5050135;28;20032;-65
2023/03/25 05:06:38;;;;;;;31.67;4.63;;;;;;;16.25;53.06;100119.00;5049168;28;20033;-65
2023/03/25 05:09:06;;;;;;;30.07;4.10;;;;;;;15.81;54.30;100114.75;5047994;28;20086;-65
2023/03/25 05:11:34;;;;;;;32.70;3.90;;;;;;;15.53;55.79;100107.16;5050544;28;20032;-65
2023/03/25 05:14:00;;;;;;;32.33;4.13;;;;;;;16.93;52.03;100113.28;5050437;28;20108;-65
2023/03/25 05:16:25;;;;;;;36.07;5.03;;;;;;;16.34;53.03;100113.31;5049947;28;20112;-64
2023/03/25 05:18:51;;;;;;;29.53;4.33;;;;;;;17.17;51.19;100110.38;5050064;28;20515;-65
2023/03/25 05:21:17;;;;;;;36.83;4.30;;;;;;;16.89;50.61;100112.56;5048820;28;20374;-65
2023/03/25 05:23:42;;;;;;;30.60;4.43;;;;;;;16.85;51.65;100118.03;5048606;28;20473;-64
2023/03/25 05:26:08;;;;;;;36.57;3.77;;;;;;;17.37;49.22;100107.59;5048163;28;20536;-65
2023/03/25 05:28:34;;;;;;;38.30;5.73;;;;;;;16.78;50.08;100105.09;5049071;28;20037;-64
2023/03/25 05:31:00;;;;;;;27.10;3.90;;;;;;;17.28;49.48;100114.19;5048010;28;20054;-65
2023/03/25 05:33:26;;;;;;;22.77;3.47;;;;;;;15.84;53.47;100121.69;5049572;28;20075;-65
2023/03/25 05:35:51;;;;;;;30.23;4.87;;;;;;;15.83;53.47;100120.00;5050016;28;20087;-65
2023/03/25 05:38:17;;;;;;;30.30;4.20;;;;;;;17.02;50.29;100120.75;5049173;28;20441;-65
2023/03/25 05:40:46;;;;;;;29.13;4.07;;;;;;;16.29;51.65;100120.56;5050087;28;20482;-65
2023/03/25 05:43:14;;;;;;;25.70;4.77;;;;;;;15.99;52.36;100128.94;5049266;28;20040;-65
2023/03/25 05:45:40;;;;;;;33.30;3.97;;;;;;;16.63;50.54;100137.50;5048743;28;20047;-65
2023/03/25 05:48:07;;;;;;;31.30;3.73;;;;;;;15.91;51.87;100141.59;5047547;28;20060;-65
2023/03/25 05:50:32;;;;;;;28.90;4.10;;;;;;;15.97;52.18;100138.69;5048060;28;20401;-65
2023/03/25 05:52:58;;;;;;;26.87;3.67;;;;;;;15.09;54.35;100137.03;5048177;28;20067;-64
2023/03/25 05:55:24;;;;;;;22.43;3.43;;;;;;;15.26;54.41;100141.59;5049297;28;20060;-65
2023/03/25 05:57:50;;;;;;;21.67;3.40;;;;;;;15.56;53.12;100138.63;5049048;28;20028;-64
2023/03/25 06:00:20;;;;;;;24.80;2.60;;;;;;;15.71;53.20;100137.97;5049488;28;20086;-64
2023/03/25 06:02:47;;;;;;;24.83;3.50;;;;;;;15.50;53.70;100136.25;5049621;28;20033;-65
2023/03/25 06:05:14;;;;;;;28.00;3.33;;;;;;;15.59;53.40;100134.09;5048751;28;20484;-65
2023/03/25 06:07:47;;;;;;;23.23;3.23;;;;;;;16.95;50.83;100148.34;5048158;28;20039;-65
2023/03/25 06:10:15;;;;;;;;;;;;;;;16.63;49.95;100148.91;5048059;28;20103;-64
2023/03/25 06:12:42;;;;;;;24.17;3.53;;;;;;;15.35;54.27;100151.75;5047748;28;19913;-65
2023/03/25 06:15:09;;;;;;;27.40;3.77;;;;;;;16.39;52.08;100144.75;5047258;28;20032;-65
2023/03/25 06:17:38;;;;;;;28.07;4.17;;;;;;;15.56;55.09;100170.22;5048131;28;20090;-65
2023/03/25 06:20:09;;;;;;;25.00;3.53;;;;;;;16.00;54.20;100159.63;5047015;28;20021;-64
2023/03/25 06:22:43;;;;;;;28.00;4.70;;;;;;;16.17;52.55;100158.91;5047732;28;20116;-65
2023/03/25 06:25:11;;;;;;;19.93;2.87;;;;;;;14.61;56.44;100162.50;5048756;28;20035;-65
2023/03/25 06:27:39;;;;;;;27.03;4.87;;;;;;;16.23;53.12;100155.13;5049138;28;20108;-64
2023/03/25 06:30:17;;;;;;;29.17;3.67;;;;;;;15.50;54.33;100157.34;5046968;28;20037;-65
2023/03/25 06:32:42;;;;;;;22.37;3.10;;;;;;;15.27;54.01;100169.66;5048589;28;20052;-64
2023/03/25 06:35:10;;;;;;;30.67;3.60;;;;;;;15.84;54.18;100164.72;5047313;28;20028;-65
2023/03/25 06:37:37;;;;;;;26.10;3.53;;;;;;;15.43;55.33;100149.66;5047784;28;20538;-65
2023/03/25 06:40:05;;;;;;;22.17;3.03;;;;;;;16.55;50.90;100155.47;5046941;28;20021;-64
2023/03/25 06:42:31;;;;;;;31.83;3.33;;;;;;;16.32;51.34;100174.97;5047610;28;20400;-65
2023/03/25 06:44:56;;;;;;;28.33;3.73;;;;;;;15.98;53.02;100177.28;5047309;28;20063;-65
2023/03/25 06:47:22;;;;;;;24.57;4.17;;;;;;;15.59;52.90;100164.84;5046683;28;20471;-65
2023/03/25 06:49:48;;;;;;;18.93;2.73;;;;;;;14.69;55.00;100171.00;5047097;28;20385;-65
2023/03/25 06:52:13;;;;;;;31.70;3.77;;;;;;;16.11;52.47;100173.22;5048904;28;20021;-65
2023/03/25 06:54:41;;;;;;;28.30;3.63;;;;;;;16.01;52.94;100176.31;5048459;28;20053;-65
2023/03/25 06:57:06;;;;;;;29.63;4.00;;;;;;;16.85;50.07;100178.72;5046566;28;20025;-66
2023/03/25 06:59:31;;;;;;;26.43;3.63;;;;;;;15.66;52.58;100163.69;5047655;28;20025;-66
2023/03/25 07:01:57;;;;;;;33.27;5.77;;;;;;;16.05;53.21;100172.63;5046708;28;20029;-66
2023/03/25 07:04:23;;;;;;;26.97;3.40;;;;;;;16.92;49.38;100172.25;5046766;28;20487;-66
2023/03/25 07:06:48;;;;;;;29.87;3.17;;;;;;;16.19;50.92;100179.94;5047063;28;20039;-66
2023/03/25 07:09:14;;;;;;;28.90;4.77;;;;;;;16.92;48.90;100170.47;5046441;28;20163;-66
2023/03/25 07:11:40;;;;;;;22.43;3.10;;;;;;;15.35;51.68;100183.34;5047166;28;20090;-66
2023/03/25 07:14:05;;;;;;;22.37;3.57;;;;;;;15.77;51.74;100177.25;5046563;28;20032;-66
2023/03/25 07:16:31;;;;;;;30.27;3.30;;;;;;;16.27;50.29;100177.81;5046975;28;20030;-66
2023/03/25 07:18:57;;;;;;;37.83;5.00;;;;;;;17.41;47.74;100177.84;5048238;28;20036;-66
2023/03/25 07:21:24;;;;;;;28.53;4.97;;;;;;;17.13;48.17;100189.75;5048714;28;20375;-66
2023/03/25 07:23:49;;;;;;;28.53;3.77;;;;;;;16.61;49.63;100186.84;5051999;28;20048;-66
2023/03/25 07:26:15;;;;;;;20.83;3.80;;;;;;;16.48;49.36;100183.06;5050585;28;20025;-66
2023/03/25 07:28:41;;;;;;;25.03;3.20;;;;;;;15.84;50.63;100184.91;5052058;28;20060;-66
2023/03/25 07:31:12;;;;;;;21.63;3.03;;;;;;;16.34;48.89;100195.06;5050328;28;20067;-66
2023/03/25 07:33:38;;;;;;;27.17;3.57;;;;;;;15.89;51.37;100180.31;5051035;28;20086;-66
2023/03/25 07:36:06;;;;;;;25.50;3.37;;;;;;;16.88;48.47;100183.88;5049855;28;20021;-66
2023/03/25 07:38:32;;;;;;;18.90;3.43;;;;;;;16.12;50.38;100192.50;5051172;28;20025;-65
2023/03/25 07:40:57;;;;;;;36.43;3.50;;;;;;;17.01;47.99;100195.59;5050707;28;20021;-66
2023/03/25 07:43:23;;;;;;;28.90;3.30;;;;;;;16.84;49.15;100193.69;5051372;28;20037;-66
2023/03/25 07:45:49;;;;;;;25.03;3.87;;;;;;;16.52;49.07;100192.53;5050593;28;20098;-66
2023/03/25 07:48:15;;;;;;;27.00;4.07;;;;;;;16.44;49.32;100190.22;5050262;28;20417;-66
2023/03/25 07:50:42;;;;;;;19.87;3.27;;;;;;;16.54;48.29;100185.41;5050462;28;20029;-66
2023/03/25 07:53:08;;;;;;;23.37;4.77;;;;;;;16.33;49.80;100198.63;5049807;28;20025;-66
2023/03/25 07:55:34;;;;;;;24.70;3.57;;;;;;;16.81;48.82;100193.00;5052286;28;20104;-66
2023/03/25 07:58:01;;;;;;;26.17;3.40;;;;;;;17.32;47.31;100180.91;5051275;28;20017;-65
2023/03/25 08:00:28;;;;;;;28.53;3.50;;;;;;;16.61;49.97;100192.13;5050165;28;20035;-65
2023/03/25 08:02:53;;;;;;;32.20;4.20;;;;;;;16.20;50.84;100200.09;5050376;28;20032;-65
2023/03/25 08:05:22;;;;;;;26.43;2.90;;;;;;;16.73;48.74;100196.84;5049526;28;20037;-66
2023/03/25 08:07:49;;;;;;;25.23;3.00;;;;;;;15.65;52.29;100217.28;5050087;28;20023;-66
2023/03/25 08:10:15;;;;;;;21.43;3.60;;;;;;;16.85;49.02;100202.50;5049925;28;20392;-65
2023/03/25 08:12:41;;;;;;;25.10;5.50;;;;;;;16.39;49.94;100208.91;5049942;28;20044;-65
2023/03/25 08:15:07;;;;;;;24.03;3.33;;;;;;;16.34;50.20;100221.44;5049407;28;20520;-65
2023/03/25 08:17:33;;;;;;;23.90;3.50;;;;;;;16.91;49.01;100225.97;5050442;28;20021;-66
2023/03/25 08:19:59;;;;;;;31.87;5.40;;;;;;;17.01;49.16;100231.69;5049876;28;20025;-66
2023/03/25 08:22:26;;;;;;;30.53;3.70;;;;;;;17.43;48.47;100231.47;5050945;28;20095;-66
2023/03/25 08:24:52;;;;;;;26.50;3.53;;;;;;;17.75;46.99;100222.88;5051092;28;20496;-66
2023/03/25 08:27:18;;;;;;;20.00;3.27;;;;;;;16.91;49.19;100215.41;5051370;28;20051;-66
2023/03/25 08:29:45;;;;;;;18.57;3.50;;;;;;;16.88;48.22;100220.81;5049860;28;20087;-66
2023/03/25 08:32:11;;;;;;;23.13;4.10;;;;;;;16.03;50.41;100233.31;5048436;28;20033;-66
2023/03/25 08:34:38;;;;;;;26.80;3.63;;;;;;;16.48;49.45;100228.75;5051250;28;20032;-66
2023/03/25 08:37:06;;;;;;;26.80;4.20;;;;;;;17.05;48.76;100231.50;5049044;28;20029;-65
2023/03/25 08:39:35;;;;;;;19.57;4.13;;;;;;;16.28;49.49;100221.72;5049739;28;20048;-66
2023/03/25 08:42:01;;;;;;;19.37;3.70;;;;;;;16.89;49.11;100243.69;5049517;28;20024;-66
2023/03/25 08:44:26;;;;;;;24.07;5.37;;;;;;;17.12;48.35;100237.34;5049462;28;20020;-66
2023/03/25 08:46:52;;;;;;;30.57;3.77;;;;;;;17.79;47.14;100233.22;5050431;28;20024;-66
2023/03/25 08:49:18;;;;;;;26.93;4.17;;;;;;;17.12;48.59;100229.41;5048940;28;20052;-66
2023/03/25 08:51:43;;;;;;;30.07;5.40;;;;;;;16.58;50.27;100240.63;5049745;28;20024;-66
2023/03/25 08:54:09;;;;;;;22.60;4.17;;;;;;;17.19;47.81;100227.34;5049791;28;20029;-66
2023/03/25 08:56:34;;;;;;;23.00;3.30;;;;;;;17.54;47.92;100240.66;5049438;28;20051;-65
2023/03/25 08:59:00;;;;;;;30.63;3.97;;;;;;;17.25;48.43;100245.53;5049544;28;20025;-65
2023/03/25 09:01:25;;;;;;;25.47;3.50;;;;;;;17.73;47.03;100233.53;5048679;28;20109;-66
2023/03/25 09:03:51;;;;;;;31.03;3.10;;;;;;;17.34;47.14;100242.47;5050636;28;20025;-66
2023/03/25 09:06:16;;;;;;;32.47;3.87;;;;;;;18.52;45.56;100234.00;5048925;28;20028;-65
2023/03/25 09:08:42;;;;;;;27.37;3.17;;;;;;;17.69;46.78;100246.97;5050600;28;20028;-66
2023/03/25 09:11:07;;;;;;;21.77;3.40;;;;;;;17.13;47.85;100242.56;5048310;28;20021;-65
2023/03/25 09:13:32;;;;;;;30.43;3.47;;;;;;;17.31;47.60;100250.53;5050802;28;20108;-66
2023/03/25 09:15:58;;;;;;;20.00;3.83;;;;;;;16.22;49.44;100227.25;5048555;28;20025;-66
2023/03/25 09:18:24;;;;;;;34.17;5.87;;;;;;;16.62;47.85;100257.16;5048585;28;20052;-65
2023/03/25 09:20:50;;;;;;;28.57;3.67;;;;;;;18.21;45.82;100225.88;5048886;28;20025;-66
2023/03/25 09:23:16;;;;;;;33.63;3.90;;;;;;;17.33;46.14;100243.38;5048230;28;20033;-66
2023/03/25 09:25:42;;;;;;;32.37;4.87;;;;;;;16.82;47.96;100242.22;5050374;28;20025;-66
2023/03/25 09:28:07;;;;;;;28.50;3.93;;;;;;;17.89;45.75;100246.00;5047926;28;20017;-65
2023/03/25 09:30:33;;;;;;;36.63;3.80;;;;;;;17.28;46.77;100246.25;5049122;28;20025;-66
2023/03/25 09:32:59;;;;;;;32.20;4.47;;;;;;;17.27;47.35;100254.25;5048517;28;20067;-66
2023/03/25 09:35:25;;;;;;;21.60;3.93;;;;;;;17.97;45.09;100246.50;5049180;28;20502;-65
2023/03/25 09:37:50;;;;;;;16.37;3.13;;;;;;;17.38;45.69;100241.38;5050101;28;20390;-66
2023/03/25 09:40:19;;;;;;;25.73;3.27;;;;;;;17.65;44.93;100264.75;5048394;28;20028;-65
2023/03/25 09:43:09;;;;;;;32.33;3.47;;;;;;;17.57;45.77;100264.25;5049729;28;20154;-65
2023/03/25 09:45:40;;;;;;;24.37;2.60;;;;;;;17.81;44.68;100241.94;5048304;28;20102;-66
2023/03/25 09:48:24;;;;;;;33.20;3.88;;;;;;;18.36;44.24;100248.03;5047893;28;20049;-65
2023/03/25 09:50:50;;;;;;;31.70;3.93;;;;;;;19.10;42.70;100246.78;5047800;28;20144;-66
2023/03/25 09:53:59;;;;;;;23.73;3.53;;;;;;;19.21;42.18;100258.59;5047894;28;20123;-66
2023/03/25 09:56:30;;;;;;;22.17;3.33;;;;;;;18.11;43.83;100251.09;5047711;28;20061;-66
2023/03/25 09:59:12;;;;;;;18.70;3.30;;;;;;;18.62;42.78;100261.69;5048153;28;20029;-66
2023/03/25 10:02:11;;;;;;;24.97;3.57;;;;;;;18.84;42.02;100271.16;5049765;28;20151;-66
2023/03/25 10:04:56;;;;;;;32.30;3.73;;;;;;;19.17;41.52;100259.72;5047884;28;20070;-66
2023/03/25 10:07:55;;;;;;;21.15;3.13;;;;;;;17.88;42.06;100273.34;5047684;28;20032;-66
2023/03/25 10:10:38;;;;;;;22.45;4.30;;;;;;;20.16;40.20;100287.66;5047259;28;20037;-65
2023/03/25 10:13:38;;;;;;;29.40;3.90;;;;;;;19.64;40.80;100272.06;5047341;28;20061;-66
2023/03/25 10:16:13;;;;;;;32.08;4.32;;;;;;;19.28;41.19;100275.84;5047428;28;20037;-67
2023/03/25 10:19:04;;;;;;;20.73;3.05;;;;;;;17.04;45.02;100287.84;5047633;28;20119;-66
2023/03/25 10:21:48;;;;;;;26.63;4.53;;;;;;;18.31;42.61;100287.09;5048003;28;20025;-66
2023/03/25 10:24:21;;;;;;;25.07;3.60;;;;;;;19.06;41.44;100282.31;5047712;28;20024;-65
2023/03/25 10:26:53;;;;;;;20.30;3.77;;;;;;;17.79;43.27;100294.03;5047730;28;20028;-65
2023/03/25 10:29:24;;;;;;;18.92;3.72;;;;;;;18.03;43.16;100290.28;5048578;28;20028;-65
2023/03/25 10:31:52;;;;;;;27.47;4.33;;;;;;;18.50;43.12;100294.94;5047277;28;20021;-65
2023/03/25 10:34:23;;;;;;;25.80;3.83;;;;;;;17.23;44.71;100303.72;5048666;28;20078;-65
2023/03/25 10:36:56;;;;;;;15.27;2.60;;;;;;;18.93;41.69;100297.16;5047690;28;20035;-65
2023/03/25 10:39:23;;;;;;;15.03;2.50;;;;;;;18.51;43.02;100306.41;5048319;28;20536;-65
2023/03/25 10:42:03;;;;;;;30.83;3.67;;;;;;;17.77;44.75;100306.44;5047244;28;20067;-65
2023/03/25 10:44:29;;;;;;;25.67;3.27;;;;;;;17.82;43.92;100330.03;5047754;28;20393;-65
2023/03/25 10:47:10;;;;;;;16.67;2.43;;;;;;;16.70;45.11;100313.06;5046788;28;20025;-65
2023/03/25 10:49:36;;;;;;;22.00;3.63;;;;;;;18.13;43.03;100308.28;5047184;28;20158;-65
2023/03/25 10:52:03;;;;;;;19.90;3.17;;;;;;;18.45;42.59;100308.41;5048797;28;20075;-65
2023/03/25 10:54:32;;;;;;;24.80;3.97;;;;;;;19.00;41.83;100327.69;5048383;28;20070;-65
2023/03/25 10:57:02;;;;;;;26.02;3.90;;;;;;;17.01;45.06;100317.03;5046498;28;20025;-65
2023/03/25 10:59:31;;;;;;;27.93;4.03;;;;;;;19.29;42.96;100312.84;5047388;28;20025;-65
2023/03/25 11:01:58;;;;;;;26.90;3.88;;;;;;;19.43;41.66;100320.03;5047197;28;20599;-65
2023/03/25 11:04:35;;;;;;;23.63;3.72;;;;;;;18.10;44.38;100339.28;5048285;28;20056;-66
2023/03/25 11:07:04;;;;;;;39.50;4.15;;;;;;;17.06;45.92;100322.97;5047982;28;20025;-65
2023/03/25 11:09:31;;;;;;;18.65;3.08;;;;;;;18.23;42.87;100318.38;5047162;28;20099;-65
2023/03/25 11:12:01;;;;;;;29.83;3.97;;;;;;;17.23;44.71;100316.06;5047123;28;20053;-66
2023/03/25 11:14:28;;;;;;;34.03;5.40;;;;;;;19.10;41.76;100331.53;5046723;28;20108;-65
2023/03/25 11:16:58;;;;;;;20.53;3.00;;;;;;;17.28;45.36;100345.75;5048198;28;20048;-66
2023/03/25 11:19:32;;;;;;;28.02;3.92;;;;;;;19.42;41.43;100347.47;5046967;28;20024;-65
2023/03/25 11:22:07;;;;;;;25.27;3.30;;;;;;;19.54;41.35;100342.47;5047915;28;20052;-66
2023/03/25 11:24:39;;;;;;;20.33;2.60;;;;;;;18.89;41.50;100317.66;5047459;28;20395;-66
2023/03/25 11:27:07;;;;;;;26.05;4.28;;;;;;;18.33;41.93;100326.69;5047853;28;20031;-66
2023/03/25 11:29:34;;;;;;;16.35;2.83;;;;;;;19.67;39.97;100319.63;5046535;28;20163;-66
2023/03/25 11:32:14;;;;;;;15.68;2.65;;;;;;;18.34;42.22;100326.63;5048002;28;20017;-65